Time;durP1;ratioP1;P1;durP2;ratioP2;P2;SDS_P1;SDS_P2;PMS_P1;PMS_P2;Temp;Humidity;BMP_temperature;BMP_pressure;BME280_temperature;BME280_humidity;BME280_pressure;Samples;Min_cycle;Max_cycle;Signal;HPM_P1;HPM_P2
2023/12/03 00:00:22;;;;;;;41.08;20.70;;;4.10;69.60;;;;;;5050439;28;20045;-51
2023/12/03 00:02:56;;;;;;;35.92;21.15;;;4.10;69.70;;;;;;5049113;28;20040;-53
2023/12/03 00:05:23;;;;;;;42.33;21.25;;;4.10;69.90;;;;;;5050952;28;20470;-51
2023/12/03 00:07:51;;;;;;;39.55;23.17;;;4.10;69.70;;;;;;5050462;28;20045;-50
2023/12/03 00:10:20;;;;;;;35.70;19.45;;;4.10;69.70;;;;;;5048636;28;20494;-51
2023/12/03 00:12:47;;;;;;;44.35;22.23;;;4.20;69.80;;;;;;5048420;28;20045;-51
2023/12/03 00:15:14;;;;;;;36.20;20.90;;;4.20;69.90;;;;;;5050962;28;20099;-49
2023/12/03 00:17:40;;;;;;;41.05;21.75;;;4.20;69.80;;;;;;5051287;28;20047;-49
2023/12/03 00:20:12;;;;;;;41.25;21.27;;;4.20;69.80;;;;;;5046274;28;20037;-52
2023/12/03 00:22:39;;;;;;;37.13;21.17;;;4.20;69.90;;;;;;5051382;28;20423;-51
2023/12/03 00:25:06;;;;;;;35.90;20.95;;;4.20;69.80;;;;;;5041469;28;20075;-53
2023/12/03 00:27:37;;;;;;;39.60;20.33;;;4.20;69.70;;;;;;5051078;28;20075;-51
2023/12/03 00:30:05;;;;;;;37.75;20.95;;;4.30;69.60;;;;;;5050522;28;20056;-51
2023/12/03 00:32:33;;;;;;;35.08;20.95;;;4.20;69.40;;;;;;5048293;28;20078;-50
2023/12/03 00:35:04;;;;;;;37.92;21.42;;;4.20;69.30;;;;;;5053227;28;20087;-51
2023/12/03 00:37:31;;;;;;;32.13;19.25;;;4.20;69.40;;;;;;5051140;28;20129;-54
2023/12/03 00:40:00;;;;;;;37.08;20.10;;;4.20;69.40;;;;;;5048000;28;20049;-52
2023/12/03 00:42:27;;;;;;;34.88;19.45;;;4.20;69.50;;;;;;5049721;28;20037;-49
2023/12/03 00:44:54;;;;;;;36.08;19.85;;;4.20;69.50;;;;;;5050479;28;20057;-50
2023/12/03 00:47:21;;;;;;;37.58;21.23;;;4.10;69.60;;;;;;5049407;28;20125;-50
2023/12/03 00:49:47;;;;;;;36.08;18.38;;;4.10;69.70;;;;;;5047212;28;20041;-50
2023/12/03 00:52:17;;;;;;;38.10;20.02;;;4.10;69.80;;;;;;5050610;28;20706;-51
2023/12/03 00:54:43;;;;;;;36.72;19.67;;;4.10;69.80;;;;;;5044345;28;20080;-49
2023/12/03 00:57:10;;;;;;;31.17;18.02;;;4.10;69.80;;;;;;5050513;28;20040;-49
2023/12/03 00:59:45;;;;;;;35.30;18.58;;;4.10;69.70;;;;;;5046676;28;20037;-53
2023/12/03 01:02:17;;;;;;;34.13;18.77;;;4.10;69.60;;;;;;5047350;28;20091;-48
2023/12/03 01:04:43;;;;;;;33.53;18.83;;;4.10;69.60;;;;;;5050230;28;20053;-53
2023/12/03 01:07:12;;;;;;;32.60;18.88;;;4.10;69.60;;;;;;5046220;28;20045;-54
2023/12/03 01:09:44;;;;;;;27.90;14.93;;;4.10;69.70;;;;;;5050192;28;20079;-54
2023/12/03 01:12:12;;;;;;;31.80;17.38;;;4.00;69.60;;;;;;5044107;28;20053;-52
2023/12/03 01:14:41;;;;;;;32.72;18.73;;;4.00;69.50;;;;;;5049398;28;20053;-49
2023/12/03 01:17:07;;;;;;;33.80;19.17;;;4.00;69.40;;;;;;5050044;28;20037;-52
2023/12/03 01:19:34;;;;;;;30.65;17.45;;;4.00;69.50;;;;;;5048193;28;20449;-53
2023/12/03 01:22:06;;;;;;;31.13;18.65;;;4.00;69.50;;;;;;5049743;28;20134;-48
2023/12/03 01:24:35;;;;;;;29.67;17.42;;;3.90;69.50;;;;;;5047444;28;20515;-49
2023/12/03 01:27:06;;;;;;;;;;;3.90;69.60;;;;;;5050255;28;20132;-51
2023/12/03 01:29:33;;;;;;;31.55;17.60;;;4.00;70.00;;;;;;5049960;28;20294;-49
2023/12/03 01:31:59;;;;;;;32.70;18.13;;;3.90;69.40;;;;;;5047284;28;20049;-49
2023/12/03 01:34:26;;;;;;;30.50;17.92;;;3.90;69.50;;;;;;5053515;28;20037;-51
2023/12/03 01:36:58;;;;;;;31.15;17.05;;;3.90;69.40;;;;;;5049180;28;20052;-49
2023/12/03 01:39:29;;;;;;;30.30;16.88;;;3.90;69.30;;;;;;5047345;28;20052;-48
2023/12/03 01:41:57;;;;;;;35.05;19.35;;;3.90;69.20;;;;;;5049389;28;20052;-52
2023/12/03 01:44:26;;;;;;;30.17;17.10;;;3.80;69.10;;;;;;5049844;28;20047;-49
2023/12/03 01:46:53;;;;;;;28.55;17.40;;;3.70;69.00;;;;;;5049295;28;20037;-51
2023/12/03 01:49:19;;;;;;;30.52;18.00;;;3.80;69.10;;;;;;5047290;28;20104;-50
2023/12/03 01:51:49;;;;;;;34.60;17.42;;;3.70;69.10;;;;;;5048770;28;20092;-50
2023/12/03 01:54:19;;;;;;;28.90;17.20;;;3.60;69.10;;;;;;5047265;28;20055;-49
2023/12/03 01:56:47;;;;;;;30.17;16.75;;;3.60;69.10;;;;;;5049134;28;20418;-52
2023/12/03 01:59:14;;;;;;;31.58;17.48;;;3.60;69.50;;;;;;5049592;28;20056;-49
2023/12/03 02:01:43;;;;;;;28.70;16.27;;;3.50;69.20;;;;;;5046936;28;20094;-50
2023/12/03 02:04:11;;;;;;;33.63;16.58;;;3.50;69.40;;;;;;5049022;28;20053;-51
2023/12/03 02:06:37;;;;;;;30.73;16.83;;;3.50;69.50;;;;;;5048908;28;20048;-54
2023/12/03 02:09:04;;;;;;;29.58;17.00;;;3.40;69.50;;;;;;5049100;28;20092;-50
2023/12/03 02:11:31;;;;;;;28.52;16.55;;;3.40;69.70;;;;;;5045927;28;20124;-53
2023/12/03 02:13:58;;;;;;;31.55;17.63;;;3.40;69.90;;;;;;5048589;28;20041;-50
2023/12/03 02:16:24;;;;;;;30.98;16.55;;;3.40;70.00;;;;;;5049135;28;20040;-49
2023/12/03 02:18:51;;;;;;;29.73;16.25;;;3.40;70.20;;;;;;5048827;28;20102;-51
2023/12/03 02:21:18;;;;;;;31.27;17.10;;;3.40;70.30;;;;;;5043798;28;20037;-52
2023/12/03 02:23:47;;;;;;;30.05;17.17;;;3.40;70.50;;;;;;5042782;28;20414;-51
2023/12/03 02:26:16;;;;;;;28.02;16.25;;;3.50;70.60;;;;;;5048636;28;20067;-53
2023/12/03 02:28:43;;;;;;;28.35;16.30;;;3.50;70.70;;;;;;5049434;28;20128;-52
2023/12/03 02:31:09;;;;;;;30.40;15.77;;;3.60;70.70;;;;;;5045463;28;20048;-49
2023/12/03 02:33:38;;;;;;;32.03;17.85;;;3.60;70.70;;;;;;5051128;28;20069;-49
2023/12/03 02:36:08;;;;;;;;;;;3.60;70.70;;;;;;5054349;28;20065;-50
2023/12/03 02:38:35;;;;;;;33.05;16.33;;;3.70;71.10;;;;;;5053437;28;19959;-49
2023/12/03 02:41:04;;;;;;;30.60;16.05;;;3.70;70.30;;;;;;5051836;28;20124;-52
2023/12/03 02:43:31;;;;;;;27.60;14.77;;;3.70;70.40;;;;;;5052933;28;20045;-50
2023/12/03 02:46:00;;;;;;;29.80;15.95;;;3.80;70.40;;;;;;5052397;28;20470;-52
2023/12/03 02:48:26;;;;;;;28.55;15.70;;;3.80;70.40;;;;;;5053167;28;20069;-48
2023/12/03 02:50:53;;;;;;;29.20;16.88;;;3.80;70.40;;;;;;5049019;28;20115;-49
2023/12/03 02:53:20;;;;;;;27.73;15.10;;;3.80;70.40;;;;;;5053047;28;20080;-50
2023/12/03 02:55:46;;;;;;;32.53;16.63;;;3.80;70.40;;;;;;5049621;28;20044;-53
2023/12/03 02:58:13;;;;;;;28.17;15.77;;;3.90;70.40;;;;;;5053034;28;20094;-50
2023/12/03 03:00:39;;;;;;;30.65;16.17;;;3.90;70.40;;;;;;5051907;28;20037;-49
2023/12/03 03:03:10;;;;;;;28.30;14.32;;;3.90;70.40;;;;;;5050249;28;20543;-49
2023/12/03 03:05:39;;;;;;;27.92;16.88;;;3.90;70.30;;;;;;5051181;28;20095;-50
2023/12/03 03:08:07;;;;;;;31.10;17.00;;;4.00;70.40;;;;;;5052962;28;20051;-53
2023/12/03 03:10:34;;;;;;;30.00;16.00;;;4.00;70.40;;;;;;5052150;28;20073;-49
2023/12/03 03:13:03;;;;;;;28.92;16.45;;;4.00;70.40;;;;;;5048583;28;20049;-49
2023/12/03 03:15:33;;;;;;;26.70;15.13;;;4.00;70.30;;;;;;5051973;28;20041;-49
2023/12/03 03:18:00;;;;;;;24.77;15.07;;;4.00;70.40;;;;;;5052536;28;20040;-50
2023/12/03 03:20:27;;;;;;;29.05;16.27;;;4.10;70.40;;;;;;5052000;28;20068;-51
2023/12/03 03:22:55;;;;;;;25.88;15.50;;;4.10;70.40;;;;;;5048216;28;20040;-50
2023/12/03 03:25:24;;;;;;;27.67;15.50;;;4.10;70.40;;;;;;5048666;28;20087;-51
2023/12/03 03:27:50;;;;;;;27.48;15.95;;;4.10;70.30;;;;;;5052279;28;20084;-50
2023/12/03 03:30:17;;;;;;;33.13;17.00;;;4.10;70.30;;;;;;5051939;28;20067;-52
2023/12/03 03:32:45;;;;;;;28.88;16.30;;;4.20;70.30;;;;;;5045662;28;20048;-48
2023/12/03 03:35:17;;;;;;;27.13;16.00;;;4.20;70.40;;;;;;5056995;28;20075;-50
2023/12/03 03:37:44;;;;;;;29.17;15.15;;;4.20;70.30;;;;;;5052331;28;20041;-51
2023/12/03 03:40:13;;;;;;;28.77;14.75;;;4.20;70.30;;;;;;5051038;28;20122;-52
2023/12/03 03:42:40;;;;;;;24.55;13.23;;;4.30;70.30;;;;;;5051651;28;20518;-53
2023/12/03 03:45:07;;;;;;;26.40;14.93;;;4.30;70.30;;;;;;5050474;28;20041;-52
2023/12/03 03:47:36;;;;;;;26.70;15.93;;;4.30;70.30;;;;;;5051935;28;20068;-51
2023/12/03 03:50:04;;;;;;;28.83;15.65;;;4.30;70.30;;;;;;5049302;28;20055;-51
2023/12/03 03:52:32;;;;;;;28.55;15.30;;;4.30;70.20;;;;;;5051760;28;20065;-51
2023/12/03 03:54:58;;;;;;;28.25;14.68;;;4.30;70.20;;;;;;5048480;28;20045;-51
2023/12/03 03:57:25;;;;;;;24.10;14.15;;;4.30;70.10;;;;;;5051743;28;20060;-50
2023/12/03 04:00:02;;;;;;;27.15;14.35;;;4.30;70.10;;;;;;5051653;28;20040;-50
2023/12/03 04:02:37;;;;;;;26.30;14.15;;;4.40;70.20;;;;;;5049371;28;20115;-54
2023/12/03 04:05:04;;;;;;;23.13;14.60;;;4.40;70.00;;;;;;5051243;28;20140;-49
2023/12/03 04:07:31;;;;;;;21.60;13.35;;;4.40;70.00;;;;;;5051810;28;20046;-50
2023/12/03 04:10:05;;;;;;;27.88;15.07;;;4.40;69.90;;;;;;5051194;28;20055;-50
2023/12/03 04:12:31;;;;;;;25.67;14.10;;;4.40;69.90;;;;;;5046550;28;20061;-52
2023/12/03 04:14:58;;;;;;;26.75;14.50;;;4.40;69.90;;;;;;5046960;28;20045;-51
2023/12/03 04:17:25;;;;;;;27.23;14.40;;;4.40;69.90;;;;;;5044535;28;20037;-52
2023/12/03 04:19:55;;;;;;;25.38;13.85;;;4.40;69.70;;;;;;5035645;28;20675;-53
2023/12/03 04:22:23;;;;;;;24.58;14.10;;;4.40;69.70;;;;;;5037353;28;20120;-50
2023/12/03 04:24:50;;;;;;;24.35;14.40;;;4.40;69.70;;;;;;5045163;28;20075;-49
2023/12/03 04:27:17;;;;;;;25.30;14.85;;;4.40;69.60;;;;;;5051357;28;20048;-50
2023/12/03 04:29:43;;;;;;;22.33;13.70;;;4.30;69.50;;;;;;5050984;28;20071;-51
2023/12/03 04:32:13;;;;;;;24.67;14.35;;;4.30;69.40;;;;;;5044182;28;20061;-50
2023/12/03 04:34:40;;;;;;;27.15;13.93;;;4.30;69.30;;;;;;5056752;28;20041;-48
2023/12/03 04:37:14;;;;;;;;;;;4.30;69.40;;;;;;5051757;28;20044;-51
2023/12/03 04:39:44;;;;;;;21.80;12.15;;;4.30;69.60;;;;;;5048695;28;20345;-51
2023/12/03 04:42:11;;;;;;;22.77;12.35;;;4.30;69.10;;;;;;5048873;28;20082;-50
2023/12/03 04:44:42;;;;;;;22.17;12.10;;;4.20;69.10;;;;;;5050684;28;20055;-49
2023/12/03 04:47:08;;;;;;;20.58;13.30;;;4.20;69.10;;;;;;5050919;28;20124;-52
2023/12/03 04:49:38;;;;;;;21.98;12.10;;;4.10;69.10;;;;;;5048912;28;20551;-54
2023/12/03 04:52:05;;;;;;;26.92;13.20;;;4.00;69.10;;;;;;5049768;28;20071;-51
2023/12/03 04:54:34;;;;;;;22.23;13.57;;;4.00;69.10;;;;;;5045222;28;20041;-52
2023/12/03 04:57:03;;;;;;;23.20;13.80;;;3.90;69.80;;;;;;5050435;28;20044;-50
2023/12/03 04:59:33;;;;;;;22.75;12.63;;;3.90;69.20;;;;;;5050148;28;20036;-51
2023/12/03 05:01:59;;;;;;;23.23;12.88;;;3.90;69.30;;;;;;5047591;28;20060;-50
2023/12/03 05:04:27;;;;;;;20.40;13.00;;;3.80;69.30;;;;;;5050267;28;20044;-54
2023/12/03 05:06:53;;;;;;;22.58;13.73;;;3.70;69.40;;;;;;5050715;28;20044;-50
2023/12/03 05:09:23;;;;;;;23.30;11.88;;;3.70;69.40;;;;;;5050347;28;20048;-51
2023/12/03 05:11:50;;;;;;;21.13;13.15;;;3.70;69.50;;;;;;5049292;28;20044;-52
2023/12/03 05:14:19;;;;;;;22.55;13.20;;;3.60;69.60;;;;;;5049752;28;20067;-53
2023/12/03 05:16:46;;;;;;;21.25;12.40;;;3.60;69.60;;;;;;5050583;28;20039;-50
2023/12/03 05:19:15;;;;;;;22.35;13.95;;;3.60;69.70;;;;;;5048972;28;20114;-51
2023/12/03 05:21:47;;;;;;;23.55;13.27;;;3.50;69.70;;;;;;5041903;28;20108;-50
2023/12/03 05:24:13;;;;;;;25.40;14.05;;;3.50;69.80;;;;;;5045344;28;20051;-52
2023/12/03 05:26:41;;;;;;;25.63;13.35;;;3.50;69.80;;;;;;5049924;28;20045;-51
2023/12/03 05:29:08;;;;;;;30.40;15.10;;;3.60;69.90;;;;;;5050305;28;20060;-50
2023/12/03 05:31:44;;;;;;;26.08;14.18;;;3.40;69.90;;;;;;5048338;28;20044;-52
2023/12/03 05:34:11;;;;;;;28.35;15.25;;;3.40;70.00;;;;;;5044217;28;20057;-52
2023/12/03 05:36:38;;;;;;;25.02;13.77;;;3.40;70.00;;;;;;5049711;28;20037;-50
2023/12/03 05:39:05;;;;;;;23.05;13.35;;;3.40;70.00;;;;;;5049761;28;20047;-50
2023/12/03 05:41:39;;;;;;;26.25;13.70;;;3.30;70.00;;;;;;5047704;28;20442;-50
2023/12/03 05:44:08;;;;;;;25.10;12.85;;;3.30;70.20;;;;;;5048412;28;20578;-50
2023/12/03 05:46:41;;;;;;;24.83;13.65;;;3.30;70.10;;;;;;5049752;28;20075;-51
2023/12/03 05:49:08;;;;;;;21.27;12.55;;;3.30;70.20;;;;;;5049765;28;20045;-53
2023/12/03 05:51:43;;;;;;;26.40;14.00;;;3.20;70.00;;;;;;5043763;28;20041;-52
2023/12/03 05:54:10;;;;;;;25.65;13.70;;;3.20;70.10;;;;;;5045286;28;20102;-50
2023/12/03 05:56:36;;;;;;;24.27;12.68;;;3.20;70.10;;;;;;5049487;28;20044;-50
2023/12/03 05:59:05;;;;;;;20.02;11.90;;;3.20;70.20;;;;;;5049753;28;20418;-49
2023/12/03 06:01:32;;;;;;;23.23;12.88;;;3.20;70.20;;;;;;5048991;28;20108;-49
2023/12/03 06:04:00;;;;;;;23.05;12.93;;;3.10;70.20;;;;;;5043944;28;20051;-50
2023/12/03 06:06:27;;;;;;;22.88;13.00;;;3.10;70.30;;;;;;5049203;28;20054;-53
2023/12/03 06:08:53;;;;;;;23.20;13.10;;;3.10;70.30;;;;;;5048621;28;20398;-52
2023/12/03 06:11:20;;;;;;;24.35;12.52;;;3.10;70.30;;;;;;5044251;28;20041;-50
2023/12/03 06:13:47;;;;;;;21.38;12.57;;;3.10;70.30;;;;;;5049401;28;20032;-49
2023/12/03 06:16:14;;;;;;;23.00;13.45;;;3.10;70.30;;;;;;5049296;28;20049;-52
2023/12/03 06:18:42;;;;;;;26.20;13.48;;;3.10;70.70;;;;;;5049248;28;20138;-52
2023/12/03 06:21:15;;;;;;;22.38;13.57;;;3.10;70.40;;;;;;5046901;28;20099;-49
2023/12/03 06:23:42;;;;;;;26.33;15.07;;;3.20;70.50;;;;;;5046052;28;20037;-53
2023/12/03 06:26:12;;;;;;;24.40;12.95;;;3.10;70.50;;;;;;5046573;28;20120;-51
2023/12/03 06:28:41;;;;;;;26.67;15.55;;;3.10;70.50;;;;;;5049071;28;20098;-51
2023/12/03 06:31:08;;;;;;;24.35;13.50;;;3.10;70.60;;;;;;5046364;28;20041;-50
2023/12/03 06:33:37;;;;;;;25.73;14.05;;;3.10;70.60;;;;;;5043153;28;20073;-52
2023/12/03 06:36:05;;;;;;;24.45;13.50;;;3.10;70.50;;;;;;5043686;28;20116;-53
2023/12/03 06:38:32;;;;;;;24.15;13.60;;;3.10;70.40;;;;;;5049078;28;20132;-49
2023/12/03 06:41:01;;;;;;;24.15;13.98;;;3.10;70.40;;;;;;5043969;28;20033;-52
2023/12/03 06:43:28;;;;;;;23.27;13.43;;;3.20;70.50;;;;;;5047639;28;20083;-50
2023/12/03 06:46:02;;;;;;;25.75;13.82;;;3.10;70.50;;;;;;5043744;28;20067;-51
2023/12/03 06:48:31;;;;;;;25.20;13.77;;;3.20;70.70;;;;;;5047578;28;20048;-49
2023/12/03 06:50:57;;;;;;;22.83;14.43;;;3.20;70.70;;;;;;5043676;28;20095;-50
2023/12/03 06:53:24;;;;;;;25.40;13.65;;;3.20;70.70;;;;;;5048295;28;20049;-52
2023/12/03 06:55:51;;;;;;;24.98;13.98;;;3.30;70.70;;;;;;5045731;28;20041;-49
2023/12/03 06:58:17;;;;;;;27.10;14.48;;;3.30;70.70;;;;;;5049312;28;20045;-52
2023/12/03 07:00:44;;;;;;;28.80;13.85;;;3.30;70.70;;;;;;5042438;28;20102;-51
2023/12/03 07:03:13;;;;;;;29.30;16.52;;;3.40;70.70;;;;;;5047371;28;20045;-54
2023/12/03 07:05:41;;;;;;;26.73;13.60;;;3.40;70.60;;;;;;5047690;28;20056;-51
2023/12/03 07:08:09;;;;;;;25.92;14.07;;;3.50;70.50;;;;;;5042708;28;20049;-50
2023/12/03 07:10:36;;;;;;;27.67;14.48;;;3.50;70.30;;;;;;5047561;28;20055;-50
2023/12/03 07:13:05;;;;;;;25.83;14.93;;;3.60;70.00;;;;;;5047686;28;20591;-53
2023/12/03 07:15:32;;;;;;;28.77;16.65;;;3.60;69.90;;;;;;5044177;28;20095;-50
2023/12/03 07:18:01;;;;;;;25.42;14.95;;;3.60;69.80;;;;;;5037082;28;20853;-54
2023/12/03 07:20:27;;;;;;;27.42;14.30;;;3.60;69.60;;;;;;5037048;28;20202;-56
2023/12/03 07:22:55;;;;;;;25.63;14.75;;;3.60;69.60;;;;;;5033811;28;20580;-57
2023/12/03 07:25:22;;;;;;;25.05;14.68;;;3.60;69.60;;;;;;5038032;28;20052;-56
2023/12/03 07:27:51;;;;;;;29.25;14.52;;;3.60;69.60;;;;;;5038298;28;21181;-57
2023/12/03 07:30:18;;;;;;;22.08;13.52;;;3.60;69.50;;;;;;5050985;28;20053;-54
2023/12/03 07:32:49;;;;;;;25.90;15.13;;;3.60;69.50;;;;;;5049451;28;20179;-55
2023/12/03 07:35:16;;;;;;;27.35;15.20;;;3.60;69.40;;;;;;5045982;28;20057;-57
2023/12/03 07:37:55;;;;;;;24.08;15.98;;;3.60;69.30;;;;;;5045060;28;20423;-57
2023/12/03 07:40:24;;;;;;;29.88;15.63;;;3.60;69.30;;;;;;5039904;28;20060;-56
2023/12/03 07:42:51;;;;;;;26.02;14.43;;;3.60;69.30;;;;;;5044390;28;20045;-57
2023/12/03 07:45:18;;;;;;;25.40;14.40;;;3.60;69.40;;;;;;5052561;28;20051;-58
2023/12/03 07:47:47;;;;;;;34.38;16.60;;;3.60;69.40;;;;;;5050152;28;20055;-57
2023/12/03 07:50:14;;;;;;;24.65;14.27;;;3.60;69.40;;;;;;5043109;28;20048;-57
2023/12/03 07:52:40;;;;;;;28.60;16.42;;;3.60;69.40;;;;;;5046716;28;20045;-56
2023/12/03 07:55:07;;;;;;;27.73;14.55;;;3.60;69.40;;;;;;5042581;28;20049;-58
2023/12/03 07:57:35;;;;;;;30.13;15.32;;;3.60;69.40;;;;;;5044720;28;20717;-58
2023/12/03 08:00:02;;;;;;;27.25;14.30;;;3.70;69.40;;;;;;5044694;28;20045;-57
2023/12/03 08:02:37;;;;;;;28.27;15.77;;;3.70;69.30;;;;;;5046929;28;20037;-55
2023/12/03 08:05:04;;;;;;;26.15;14.48;;;3.70;69.30;;;;;;5052441;28;20495;-56
2023/12/03 08:07:31;;;;;;;24.88;14.88;;;3.70;69.20;;;;;;5050703;28;20040;-57
2023/12/03 08:09:58;;;;;;;24.25;13.82;;;3.80;69.20;;;;;;5046257;28;20048;-55
2023/12/03 08:12:25;;;;;;;28.55;14.82;;;3.80;69.10;;;;;;5051206;28;20055;-57
2023/12/03 08:14:52;;;;;;;24.80;13.60;;;3.80;69.10;;;;;;5052237;28;20039;-55
2023/12/03 08:17:21;;;;;;;25.90;14.77;;;3.90;69.10;;;;;;5049178;28;20131;-56
2023/12/03 08:19:47;;;;;;;25.33;15.52;;;3.90;69.00;;;;;;5045986;28;20069;-55
2023/12/03 08:22:17;;;;;;;25.80;13.15;;;4.00;69.00;;;;;;5051048;28;20492;-53
2023/12/03 08:24:43;;;;;;;28.67;14.60;;;4.00;68.80;;;;;;5046128;28;20102;-53
2023/12/03 08:27:10;;;;;;;23.98;13.25;;;4.00;69.40;;;;;;5050867;28;20049;-55
2023/12/03 08:29:37;;;;;;;23.25;12.75;;;4.10;68.60;;;;;;5048719;28;20040;-54
2023/12/03 08:32:03;;;;;;;23.15;13.30;;;4.10;68.40;;;;;;5044994;28;20064;-55
2023/12/03 08:34:30;;;;;;;22.00;13.20;;;4.10;68.30;;;;;;5051723;28;20077;-52
2023/12/03 08:36:57;;;;;;;22.50;12.65;;;4.10;68.10;;;;;;5046142;28;20095;-54
2023/12/03 08:39:24;;;;;;;20.42;11.77;;;4.10;68.00;;;;;;5048873;28;20044;-55
2023/12/03 08:41:50;;;;;;;20.77;12.88;;;4.10;67.90;;;;;;5045804;28;20037;-55
2023/12/03 08:44:17;;;;;;;24.98;13.23;;;4.10;67.80;;;;;;5047833;28;20127;-56
2023/12/03 08:46:44;;;;;;;22.70;12.10;;;4.10;67.80;;;;;;5049952;28;20063;-58
2023/12/03 08:49:12;;;;;;;21.40;12.63;;;4.10;67.70;;;;;;5050769;28;20384;-56
2023/12/03 08:51:39;;;;;;;20.80;12.73;;;4.10;67.70;;;;;;5045702;28;20866;-57
2023/12/03 08:54:06;;;;;;;19.85;13.07;;;4.10;67.60;;;;;;5047088;28;20056;-57
2023/12/03 08:56:33;;;;;;;21.17;12.45;;;4.10;67.60;;;;;;5049292;28;20037;-55
2023/12/03 08:59:00;;;;;;;21.38;11.07;;;4.10;67.70;;;;;;5051208;28;20064;-57
2023/12/03 09:01:27;;;;;;;25.00;12.82;;;4.10;67.60;;;;;;5049686;28;20056;-54
2023/12/03 09:03:53;;;;;;;19.10;12.02;;;4.10;67.60;;;;;;5047005;28;20037;-52
2023/12/03 09:06:20;;;;;;;22.02;12.38;;;4.00;67.60;;;;;;5050702;28;20123;-57
2023/12/03 09:08:47;;;;;;;21.02;12.10;;;4.00;67.60;;;;;;5050612;28;20041;-55
2023/12/03 09:11:13;;;;;;;22.20;12.43;;;4.10;67.70;;;;;;5050733;28;20052;-52
2023/12/03 09:13:43;;;;;;;19.42;11.15;;;4.10;67.70;;;;;;5047863;28;20076;-54
2023/12/03 09:16:10;;;;;;;18.95;11.32;;;4.10;67.60;;;;;;5046694;28;20127;-55
2023/12/03 09:18:38;;;;;;;21.45;12.65;;;4.10;67.60;;;;;;5043688;28;20053;-58
2023/12/03 09:21:08;;;;;;;20.58;11.25;;;4.10;67.60;;;;;;5044554;28;20038;-56
2023/12/03 09:23:35;;;;;;;19.65;11.82;;;4.20;67.60;;;;;;5047647;28;20116;-56
2023/12/03 09:26:01;;;;;;;21.35;11.65;;;4.20;67.60;;;;;;5051092;28;20040;-56
2023/12/03 09:28:30;;;;;;;18.35;10.82;;;4.20;67.50;;;;;;5052792;28;20052;-55
2023/12/03 09:30:59;;;;;;;19.90;12.30;;;4.30;67.40;;;;;;5042689;28;20052;-55
2023/12/03 09:33:27;;;;;;;16.88;11.68;;;4.30;67.30;;;;;;5049592;28;20115;-55
2023/12/03 09:35:56;;;;;;;16.20;10.57;;;4.30;67.30;;;;;;5046779;28;20045;-54
2023/12/03 09:38:23;;;;;;;17.02;12.75;;;4.40;67.20;;;;;;5046239;28;20037;-57
2023/12/03 09:40:53;;;;;;;19.88;11.65;;;4.40;67.10;;;;;;5046813;28;20233;-56
2023/12/03 09:43:20;;;;;;;29.98;15.82;;;4.40;67.00;;;;;;5048219;28;20061;-57
2023/12/03 09:45:47;;;;;;;19.58;11.45;;;4.40;67.00;;;;;;5047276;28;20045;-56
2023/12/03 09:48:19;;;;;;;20.48;12.23;;;4.50;66.90;;;;;;5050089;28;20117;-56
2023/12/03 09:50:47;;;;;;;17.67;8.93;;;4.50;66.80;;;;;;5047535;28;20463;-57
2023/12/03 09:53:17;;;;;;;17.55;11.50;;;4.60;66.80;;;;;;5048852;28;20137;-57
2023/12/03 09:55:44;;;;;;;18.30;10.98;;;4.60;66.70;;;;;;5043769;28;20442;-56
2023/12/03 09:58:11;;;;;;;17.48;10.68;;;4.60;66.60;;;;;;5049507;28;20044;-56
2023/12/03 10:00:39;;;;;;;18.55;10.55;;;4.70;66.60;;;;;;5049951;28;20045;-58
2023/12/03 10:03:06;;;;;;;18.35;11.05;;;4.70;66.50;;;;;;5046650;28;20041;-58
2023/12/03 10:05:32;;;;;;;21.73;12.40;;;4.70;66.40;;;;;;5046607;28;20049;-53
2023/12/03 10:08:00;;;;;;;17.63;10.50;;;4.80;66.20;;;;;;5048091;28;20091;-55
2023/12/03 10:10:31;;;;;;;20.00;11.65;;;4.80;66.10;;;;;;5044068;28;20051;-58
2023/12/03 10:12:59;;;;;;;19.05;10.63;;;4.90;66.10;;;;;;5043391;28;20440;-58
2023/12/03 10:15:26;;;;;;;16.98;10.68;;;4.90;66.20;;;;;;5047998;28;20298;-54
2023/12/03 10:17:53;;;;;;;18.42;11.93;;;5.00;66.10;;;;;;5046243;28;20455;-55
2023/12/03 10:20:27;;;;;;;22.15;13.35;;;5.00;65.90;;;;;;5047274;28;20041;-55
2023/12/03 10:22:57;;;;;;;20.95;11.70;;;5.10;65.90;;;;;;5046693;28;20037;-56
2023/12/03 10:25:25;;;;;;;17.98;11.57;;;5.10;65.80;;;;;;5042293;28;20661;-56
2023/12/03 10:27:56;;;;;;;20.30;12.63;;;5.20;65.70;;;;;;5049513;28;20122;-55
2023/12/03 10:30:24;;;;;;;18.07;10.53;;;5.20;65.60;;;;;;5049793;28;20048;-58
2023/12/03 10:32:53;;;;;;;19.75;11.07;;;5.20;65.50;;;;;;5047387;28;20052;-57
2023/12/03 10:35:21;;;;;;;21.23;11.90;;;5.30;65.40;;;;;;5045167;28;20045;-58
2023/12/03 10:37:49;;;;;;;18.23;11.25;;;5.40;65.30;;;;;;5046599;28;20049;-56
2023/12/03 10:40:20;;;;;;;18.50;11.90;;;5.40;65.10;;;;;;5049344;28;20052;-57
2023/12/03 10:42:47;;;;;;;17.35;10.90;;;5.40;65.00;;;;;;5042281;28;20045;-55
2023/12/03 10:45:15;;;;;;;18.88;9.68;;;5.50;64.90;;;;;;5049370;28;20063;-57
2023/12/03 10:47:43;;;;;;;13.55;9.43;;;5.50;64.70;;;;;;5049052;28;20048;-54
2023/12/03 10:50:11;;;;;;;20.05;11.55;;;5.50;64.50;;;;;;5049299;28;20044;-52
2023/12/03 10:52:39;;;;;;;18.23;10.32;;;5.60;64.30;;;;;;5043690;28;20046;-59
2023/12/03 10:55:07;;;;;;;17.30;11.10;;;5.60;64.30;;;;;;5048968;28;20040;-57
2023/12/03 10:58:01;;;;;;;16.00;10.23;;;5.70;64.40;;;;;;5052848;28;20041;-57
2023/12/03 11:00:36;;;;;;;15.25;9.40;;;5.70;64.00;;;;;;5051152;28;20418;-53
2023/12/03 11:03:18;;;;;;;15.10;10.00;;;5.70;64.30;;;;;;5051470;28;20045;-57
2023/12/03 11:05:52;;;;;;;16.85;10.27;;;5.80;64.00;;;;;;5051005;28;20129;-57
2023/12/03 11:08:22;;;;;;;15.63;10.48;;;5.90;64.00;;;;;;5052471;28;20514;-55
2023/12/03 11:10:52;;;;;;;16.00;10.80;;;6.00;64.10;;;;;;5046748;28;20132;-56
2023/12/03 11:13:26;;;;;;;17.45;11.68;;;6.00;64.00;;;;;;5047817;28;20055;-56
2023/12/03 11:16:08;;;;;;;15.48;10.07;;;6.10;63.90;;;;;;5052594;28;20041;-56
2023/12/03 11:18:39;;;;;;;14.35;9.18;;;6.10;63.80;;;;;;5050852;28;20121;-58
2023/12/03 11:21:17;;;;;;;16.75;10.32;;;6.20;63.50;;;;;;5047805;28;20948;-56
2023/12/03 11:24:22;;;;;;;14.13;8.82;;;6.20;63.10;;;;;;5042613;28;20038;-58
2023/12/03 11:26:49;;;;;;;15.63;9.35;;;6.30;62.40;;;;;;5013951;28;20136;-59
2023/12/03 11:29:16;;;;;;;13.30;9.88;;;6.40;63.10;;;;;;5047641;28;20051;-58
2023/12/03 11:31:43;;;;;;;15.93;10.20;;;6.40;62.80;;;;;;5045979;28;20640;-57
2023/12/03 11:34:10;;;;;;;15.07;9.32;;;6.40;62.50;;;;;;5051110;28;20762;-56
2023/12/03 11:36:47;;;;;;;13.02;9.20;;;6.50;62.30;;;;;;5045013;28;20495;-58
2023/12/03 11:39:20;;;;;;;17.00;9.90;;;6.50;61.70;;;;;;5051420;28;20423;-55
2023/12/03 11:42:01;;;;;;;15.32;9.55;;;6.50;62.20;;;;;;5049125;28;20510;-58
2023/12/03 11:44:27;;;;;;;13.65;8.77;;;6.50;61.60;;;;;;5038321;28;20826;-57
2023/12/03 11:47:07;;;;;;;14.70;9.40;;;6.50;62.00;;;;;;5048032;28;20048;-54
2023/12/03 11:49:36;;;;;;;15.23;9.10;;;6.50;61.40;;;;;;5049341;28;20631;-56
2023/12/03 11:52:03;;;;;;;14.77;8.98;;;6.50;61.70;;;;;;5040774;28;20583;-55
2023/12/03 11:54:37;;;;;;;12.55;8.20;;;6.50;61.50;;;;;;5047214;28;20495;-58
2023/12/03 11:57:16;;;;;;;12.40;9.20;;;6.50;61.30;;;;;;5041069;28;20071;-57
2023/12/03 11:59:43;;;;;;;15.13;9.20;;;6.50;60.90;;;;;;5046034;28;20048;-58
2023/12/03 12:02:11;;;;;;;12.05;8.75;;;6.50;61.40;;;;;;5051128;28;20060;-57
2023/12/03 12:04:38;;;;;;;13.73;8.70;;;6.50;61.30;;;;;;5046769;28;20086;-58
2023/12/03 12:07:18;;;;;;;11.65;8.52;;;6.50;61.30;;;;;;5049542;28;20080;-58
2023/12/03 12:09:46;;;;;;;14.23;8.52;;;6.50;61.00;;;;;;5051808;28;20045;-56
2023/12/03 12:12:14;;;;;;;15.50;9.25;;;6.50;61.30;;;;;;5050023;28;20063;-56
2023/12/03 12:14:41;;;;;;;13.82;8.48;;;6.50;61.30;;;;;;5047652;28;20077;-56
2023/12/03 12:17:08;;;;;;;14.13;9.13;;;6.50;61.40;;;;;;5050786;28;20047;-56
2023/12/03 12:19:44;;;;;;;14.30;8.23;;;6.50;61.40;;;;;;5051743;28;20064;-56
2023/12/03 12:22:11;;;;;;;12.18;7.82;;;6.50;61.00;;;;;;5044943;28;20076;-58
2023/12/03 12:24:38;;;;;;;13.13;7.78;;;6.50;61.30;;;;;;5049278;28;20116;-56
2023/12/03 12:27:05;;;;;;;10.60;7.88;;;6.50;61.20;;;;;;5051157;28;20045;-58
2023/12/03 12:29:32;;;;;;;12.02;8.15;;;6.50;61.20;;;;;;5049121;28;20053;-56
2023/12/03 12:32:00;;;;;;;13.15;8.15;;;6.50;61.20;;;;;;5039192;28;20786;-57
2023/12/03 12:34:28;;;;;;;10.77;7.50;;;6.50;61.10;;;;;;5048561;28;20115;-56
2023/12/03 12:37:06;;;;;;;12.75;8.35;;;6.50;61.10;;;;;;5049224;28;20118;-56
2023/12/03 12:39:33;;;;;;;12.30;8.00;;;6.50;60.80;;;;;;5040302;28;20068;-58
2023/12/03 12:42:00;;;;;;;12.02;7.63;;;6.50;61.10;;;;;;5034263;28;20663;-56
2023/12/03 12:44:43;;;;;;;11.80;7.75;;;6.40;61.10;;;;;;5046562;28;20041;-56